sensor_id;sensor_type;location;lat;lon;timestamp;P1;durP1;ratioP1;P2;durP2;ratioP2
61096;SDS011;46977;50.936;6.908;2022-07-23T00:02:44;32.50;;;18.90;;
61096;SDS011;46977;50.936;6.908;2022-07-23T00:05:46;35.05;;;19.67;;
61096;SDS011;46977;50.936;6.908;2022-07-23T00:08:49;34.00;;;20.48;;
61096;SDS011;46977;50.936;6.908;2022-07-23T00:11:52;36.08;;;20.30;;
61096;SDS011;46977;50.936;6.908;2022-07-23T00:14:56;33.95;;;19.58;;
61096;SDS011;46977;50.936;6.908;2022-07-23T00:17:58;37.38;;;20.52;;
61096;SDS011;46977;50.936;6.908;2022-07-23T00:21:01;42.28;;;22.38;;
61096;SDS011;46977;50.936;6.908;2022-07-23T00:24:03;39.35;;;20.33;;
61096;SDS011;46977;50.936;6.908;2022-07-23T00:27:07;40.10;;;21.67;;
61096;SDS011;46977;50.936;6.908;2022-07-23T00:30:11;42.03;;;20.92;;
61096;SDS011;46977;50.936;6.908;2022-07-23T00:33:14;42.28;;;21.35;;
61096;SDS011;46977;50.936;6.908;2022-07-23T00:36:17;41.40;;;20.58;;
61096;SDS011;46977;50.936;6.908;2022-07-23T00:39:20;40.22;;;20.88;;
61096;SDS011;46977;50.936;6.908;2022-07-23T00:42:25;36.95;;;19.90;;
61096;SDS011;46977;50.936;6.908;2022-07-23T00:45:29;42.25;;;21.90;;
61096;SDS011;46977;50.936;6.908;2022-07-23T00:48:32;36.90;;;20.52;;
61096;SDS011;46977;50.936;6.908;2022-07-23T00:51:35;34.75;;;19.30;;
61096;SDS011;46977;50.936;6.908;2022-07-23T00:54:38;40.00;;;20.58;;
61096;SDS011;46977;50.936;6.908;2022-07-23T00:57:41;37.65;;;18.48;;
61096;SDS011;46977;50.936;6.908;2022-07-23T01:00:45;37.55;;;17.77;;
61096;SDS011;46977;50.936;6.908;2022-07-23T01:03:48;32.85;;;18.25;;
61096;SDS011;46977;50.936;6.908;2022-07-23T01:06:50;32.45;;;16.48;;
61096;SDS011;46977;50.936;6.908;2022-07-23T01:09:53;36.80;;;18.45;;
61096;SDS011;46977;50.936;6.908;2022-07-23T01:12:56;38.17;;;18.90;;
61096;SDS011;46977;50.936;6.908;2022-07-23T01:16:00;37.65;;;18.88;;
61096;SDS011;46977;50.936;6.908;2022-07-23T01:19:03;38.47;;;19.58;;
61096;SDS011;46977;50.936;6.908;2022-07-23T01:22:08;38.88;;;19.67;;
61096;SDS011;46977;50.936;6.908;2022-07-23T01:25:13;37.55;;;19.35;;
61096;SDS011;46977;50.936;6.908;2022-07-23T01:28:22;33.70;;;16.75;;
61096;SDS011;46977;50.936;6.908;2022-07-23T01:31:25;33.95;;;17.98;;
61096;SDS011;46977;50.936;6.908;2022-07-23T01:34:32;30.05;;;16.73;;
61096;SDS011;46977;50.936;6.908;2022-07-23T01:37:35;35.38;;;16.75;;
61096;SDS011;46977;50.936;6.908;2022-07-23T01:40:40;36.30;;;17.33;;
61096;SDS011;46977;50.936;6.908;2022-07-23T01:43:44;36.95;;;18.10;;
61096;SDS011;46977;50.936;6.908;2022-07-23T01:46:47;35.25;;;19.08;;
61096;SDS011;46977;50.936;6.908;2022-07-23T01:49:50;40.50;;;20.33;;
61096;SDS011;46977;50.936;6.908;2022-07-23T01:53:11;35.88;;;17.63;;
61096;SDS011;46977;50.936;6.908;2022-07-23T01:56:16;42.22;;;18.05;;
61096;SDS011;46977;50.936;6.908;2022-07-23T01:59:18;39.28;;;18.35;;
61096;SDS011;46977;50.936;6.908;2022-07-23T02:02:21;44.42;;;19.60;;
61096;SDS011;46977;50.936;6.908;2022-07-23T02:05:24;39.80;;;18.20;;
61096;SDS011;46977;50.936;6.908;2022-07-23T02:08:26;38.38;;;18.38;;
61096;SDS011;46977;50.936;6.908;2022-07-23T02:11:30;43.67;;;19.48;;
61096;SDS011;46977;50.936;6.908;2022-07-23T02:14:33;45.03;;;20.33;;
61096;SDS011;46977;50.936;6.908;2022-07-23T02:17:40;44.53;;;19.30;;
61096;SDS011;46977;50.936;6.908;2022-07-23T02:20:42;41.50;;;19.73;;
61096;SDS011;46977;50.936;6.908;2022-07-23T02:23:46;50.53;;;22.75;;
61096;SDS011;46977;50.936;6.908;2022-07-23T02:26:50;50.65;;;19.70;;
61096;SDS011;46977;50.936;6.908;2022-07-23T02:29:52;52.67;;;23.45;;
61096;SDS011;46977;50.936;6.908;2022-07-23T02:32:55;54.78;;;22.30;;
61096;SDS011;46977;50.936;6.908;2022-07-23T02:35:58;45.03;;;21.50;;
61096;SDS011;46977;50.936;6.908;2022-07-23T02:39:01;60.03;;;25.38;;
61096;SDS011;46977;50.936;6.908;2022-07-23T02:42:07;62.83;;;26.02;;
61096;SDS011;46977;50.936;6.908;2022-07-23T02:45:11;66.78;;;26.92;;
61096;SDS011;46977;50.936;6.908;2022-07-23T02:48:14;63.78;;;26.95;;
61096;SDS011;46977;50.936;6.908;2022-07-23T02:51:19;64.07;;;26.35;;
61096;SDS011;46977;50.936;6.908;2022-07-23T02:54:28;70.13;;;28.30;;
61096;SDS011;46977;50.936;6.908;2022-07-23T02:57:31;77.75;;;28.35;;
61096;SDS011;46977;50.936;6.908;2022-07-23T03:00:34;72.20;;;29.05;;
61096;SDS011;46977;50.936;6.908;2022-07-23T03:03:36;71.75;;;28.77;;
61096;SDS011;46977;50.936;6.908;2022-07-23T03:06:39;68.00;;;27.55;;
61096;SDS011;46977;50.936;6.908;2022-07-23T03:09:41;79.68;;;28.73;;
61096;SDS011;46977;50.936;6.908;2022-07-23T03:12:45;70.13;;;27.00;;
61096;SDS011;46977;50.936;6.908;2022-07-23T03:15:48;76.32;;;29.63;;
61096;SDS011;46977;50.936;6.908;2022-07-23T03:18:50;65.38;;;26.48;;
61096;SDS011;46977;50.936;6.908;2022-07-23T03:21:52;75.65;;;28.17;;
61096;SDS011;46977;50.936;6.908;2022-07-23T03:24:55;76.78;;;31.17;;
61096;SDS011;46977;50.936;6.908;2022-07-23T03:28:05;68.68;;;27.23;;
61096;SDS011;46977;50.936;6.908;2022-07-23T03:31:08;77.90;;;30.98;;
61096;SDS011;46977;50.936;6.908;2022-07-23T03:34:12;75.30;;;28.23;;
61096;SDS011;46977;50.936;6.908;2022-07-23T03:37:14;84.50;;;31.58;;
61096;SDS011;46977;50.936;6.908;2022-07-23T03:40:18;77.75;;;28.80;;
61096;SDS011;46977;50.936;6.908;2022-07-23T03:43:22;74.68;;;28.30;;
61096;SDS011;46977;50.936;6.908;2022-07-23T03:46:27;77.88;;;29.00;;
61096;SDS011;46977;50.936;6.908;2022-07-23T03:49:30;88.97;;;29.08;;
61096;SDS011;46977;50.936;6.908;2022-07-23T03:52:32;80.57;;;30.55;;
61096;SDS011;46977;50.936;6.908;2022-07-23T03:55:34;86.70;;;33.35;;
61096;SDS011;46977;50.936;6.908;2022-07-23T03:58:38;93.72;;;33.38;;
61096;SDS011;46977;50.936;6.908;2022-07-23T04:01:41;90.30;;;33.22;;
61096;SDS011;46977;50.936;6.908;2022-07-23T04:04:43;97.22;;;35.00;;
61096;SDS011;46977;50.936;6.908;2022-07-23T04:07:46;100.13;;;36.20;;
61096;SDS011;46977;50.936;6.908;2022-07-23T04:10:48;105.60;;;36.63;;
61096;SDS011;46977;50.936;6.908;2022-07-23T04:13:52;106.72;;;35.38;;
61096;SDS011;46977;50.936;6.908;2022-07-23T04:16:55;101.22;;;35.85;;
61096;SDS011;46977;50.936;6.908;2022-07-23T04:19:58;110.57;;;37.20;;
61096;SDS011;46977;50.936;6.908;2022-07-23T04:23:06;111.97;;;36.80;;
61096;SDS011;46977;50.936;6.908;2022-07-23T04:26:21;117.45;;;39.63;;
61096;SDS011;46977;50.936;6.908;2022-07-23T04:29:25;100.18;;;33.90;;
61096;SDS011;46977;50.936;6.908;2022-07-23T04:32:27;109.63;;;38.53;;
61096;SDS011;46977;50.936;6.908;2022-07-23T04:35:30;103.03;;;34.88;;
61096;SDS011;46977;50.936;6.908;2022-07-23T04:38:42;101.47;;;35.65;;
61096;SDS011;46977;50.936;6.908;2022-07-23T04:41:45;111.25;;;37.58;;
61096;SDS011;46977;50.936;6.908;2022-07-23T04:44:49;109.93;;;35.70;;
61096;SDS011;46977;50.936;6.908;2022-07-23T04:47:52;113.88;;;36.20;;
61096;SDS011;46977;50.936;6.908;2022-07-23T04:50:54;120.18;;;39.92;;
61096;SDS011;46977;50.936;6.908;2022-07-23T04:54:04;119.70;;;37.35;;
61096;SDS011;46977;50.936;6.908;2022-07-23T04:57:07;111.95;;;37.22;;
61096;SDS011;46977;50.936;6.908;2022-07-23T05:00:11;105.78;;;35.42;;
61096;SDS011;46977;50.936;6.908;2022-07-23T05:03:14;104.18;;;35.70;;
61096;SDS011;46977;50.936;6.908;2022-07-23T05:06:19;107.05;;;35.92;;
61096;SDS011;46977;50.936;6.908;2022-07-23T05:09:22;106.13;;;36.33;;
61096;SDS011;46977;50.936;6.908;2022-07-23T05:12:25;109.30;;;36.20;;
61096;SDS011;46977;50.936;6.908;2022-07-23T05:15:29;115.80;;;38.25;;
61096;SDS011;46977;50.936;6.908;2022-07-23T05:18:32;108.80;;;34.50;;
61096;SDS011;46977;50.936;6.908;2022-07-23T05:21:35;112.90;;;36.83;;
61096;SDS011;46977;50.936;6.908;2022-07-23T05:24:38;104.85;;;36.03;;
61096;SDS011;46977;50.936;6.908;2022-07-23T05:27:43;101.53;;;34.42;;
61096;SDS011;46977;50.936;6.908;2022-07-23T05:30:47;101.65;;;37.65;;
61096;SDS011;46977;50.936;6.908;2022-07-23T05:33:51;102.95;;;32.10;;
61096;SDS011;46977;50.936;6.908;2022-07-23T05:36:53;95.18;;;32.97;;
61096;SDS011;46977;50.936;6.908;2022-07-23T05:39:59;88.60;;;32.70;;
61096;SDS011;46977;50.936;6.908;2022-07-23T05:43:02;88.88;;;30.42;;
61096;SDS011;46977;50.936;6.908;2022-07-23T05:46:06;92.60;;;33.97;;
61096;SDS011;46977;50.936;6.908;2022-07-23T05:49:12;77.15;;;29.35;;
61096;SDS011;46977;50.936;6.908;2022-07-23T05:52:43;79.25;;;29.48;;
61096;SDS011;46977;50.936;6.908;2022-07-23T05:56:04;81.32;;;29.45;;
61096;SDS011;46977;50.936;6.908;2022-07-23T05:59:08;76.70;;;28.02;;
61096;SDS011;46977;50.936;6.908;2022-07-23T06:02:21;84.20;;;29.20;;
61096;SDS011;46977;50.936;6.908;2022-07-23T06:05:24;75.65;;;28.35;;
61096;SDS011;46977;50.936;6.908;2022-07-23T06:08:32;71.78;;;26.98;;
61096;SDS011;46977;50.936;6.908;2022-07-23T06:11:37;81.03;;;28.75;;
61096;SDS011;46977;50.936;6.908;2022-07-23T06:14:54;69.50;;;26.55;;
61096;SDS011;46977;50.936;6.908;2022-07-23T06:18:02;69.40;;;25.53;;
61096;SDS011;46977;50.936;6.908;2022-07-23T06:21:05;73.10;;;27.08;;
61096;SDS011;46977;50.936;6.908;2022-07-23T06:24:27;66.97;;;25.67;;
61096;SDS011;46977;50.936;6.908;2022-07-23T06:27:30;63.58;;;24.35;;
61096;SDS011;46977;50.936;6.908;2022-07-23T06:30:32;69.80;;;25.17;;
61096;SDS011;46977;50.936;6.908;2022-07-23T06:33:36;55.45;;;22.42;;
61096;SDS011;46977;50.936;6.908;2022-07-23T06:36:38;61.58;;;25.02;;
61096;SDS011;46977;50.936;6.908;2022-07-23T06:39:43;56.40;;;23.35;;
61096;SDS011;46977;50.936;6.908;2022-07-23T06:42:46;67.03;;;23.67;;
61096;SDS011;46977;50.936;6.908;2022-07-23T06:45:56;52.08;;;21.45;;
61096;SDS011;46977;50.936;6.908;2022-07-23T06:49:00;47.55;;;21.02;;
61096;SDS011;46977;50.936;6.908;2022-07-23T06:52:04;49.10;;;19.40;;
61096;SDS011;46977;50.936;6.908;2022-07-23T06:55:08;41.25;;;16.88;;
61096;SDS011;46977;50.936;6.908;2022-07-23T06:58:10;45.17;;;19.13;;
61096;SDS011;46977;50.936;6.908;2022-07-23T07:01:13;37.20;;;16.23;;
61096;SDS011;46977;50.936;6.908;2022-07-23T07:04:18;39.75;;;15.98;;
61096;SDS011;46977;50.936;6.908;2022-07-23T07:07:21;37.53;;;16.15;;
61096;SDS011;46977;50.936;6.908;2022-07-23T07:10:26;30.92;;;14.50;;
61096;SDS011;46977;50.936;6.908;2022-07-23T07:13:28;30.40;;;14.82;;
61096;SDS011;46977;50.936;6.908;2022-07-23T07:16:30;31.02;;;14.43;;
61096;SDS011;46977;50.936;6.908;2022-07-23T07:19:44;31.80;;;15.18;;
61096;SDS011;46977;50.936;6.908;2022-07-23T07:22:46;27.77;;;14.00;;
61096;SDS011;46977;50.936;6.908;2022-07-23T07:25:49;29.45;;;14.27;;
61096;SDS011;46977;50.936;6.908;2022-07-23T07:28:51;29.50;;;12.60;;
61096;SDS011;46977;50.936;6.908;2022-07-23T07:31:54;27.33;;;12.90;;
61096;SDS011;46977;50.936;6.908;2022-07-23T07:34:58;32.28;;;15.10;;
61096;SDS011;46977;50.936;6.908;2022-07-23T07:38:01;30.58;;;14.48;;
61096;SDS011;46977;50.936;6.908;2022-07-23T07:41:03;29.27;;;12.75;;
61096;SDS011;46977;50.936;6.908;2022-07-23T07:44:05;20.48;;;10.50;;
61096;SDS011;46977;50.936;6.908;2022-07-23T07:47:08;19.25;;;9.32;;
61096;SDS011;46977;50.936;6.908;2022-07-23T07:50:11;21.17;;;11.20;;
61096;SDS011;46977;50.936;6.908;2022-07-23T07:53:14;24.77;;;12.10;;
61096;SDS011;46977;50.936;6.908;2022-07-23T07:56:17;24.20;;;11.98;;
61096;SDS011;46977;50.936;6.908;2022-07-23T07:59:20;21.40;;;10.50;;
61096;SDS011;46977;50.936;6.908;2022-07-23T08:02:26;21.13;;;10.15;;
61096;SDS011;46977;50.936;6.908;2022-07-23T08:05:30;30.35;;;15.35;;
61096;SDS011;46977;50.936;6.908;2022-07-23T08:08:33;29.92;;;12.65;;
61096;SDS011;46977;50.936;6.908;2022-07-23T08:11:38;31.60;;;16.60;;
61096;SDS011;46977;50.936;6.908;2022-07-23T08:14:40;30.77;;;15.40;;
61096;SDS011;46977;50.936;6.908;2022-07-23T08:17:43;32.78;;;14.68;;
61096;SDS011;46977;50.936;6.908;2022-07-23T08:20:48;29.80;;;13.60;;
61096;SDS011;46977;50.936;6.908;2022-07-23T08:23:50;32.45;;;16.40;;
61096;SDS011;46977;50.936;6.908;2022-07-23T08:26:52;29.17;;;14.43;;
61096;SDS011;46977;50.936;6.908;2022-07-23T08:29:54;19.42;;;10.40;;
61096;SDS011;46977;50.936;6.908;2022-07-23T08:32:58;22.63;;;12.35;;
61096;SDS011;46977;50.936;6.908;2022-07-23T08:36:05;22.08;;;11.40;;
61096;SDS011;46977;50.936;6.908;2022-07-23T08:39:08;20.42;;;11.95;;
61096;SDS011;46977;50.936;6.908;2022-07-23T08:42:12;23.50;;;10.80;;
61096;SDS011;46977;50.936;6.908;2022-07-23T08:45:17;25.85;;;15.23;;
61096;SDS011;46977;50.936;6.908;2022-07-23T08:48:21;26.50;;;15.00;;
61096;SDS011;46977;50.936;6.908;2022-07-23T08:51:26;18.02;;;11.73;;
61096;SDS011;46977;50.936;6.908;2022-07-23T08:54:29;24.58;;;12.52;;
61096;SDS011;46977;50.936;6.908;2022-07-23T08:57:32;30.23;;;19.20;;
61096;SDS011;46977;50.936;6.908;2022-07-23T09:00:34;29.90;;;18.85;;
61096;SDS011;46977;50.936;6.908;2022-07-23T09:03:37;31.52;;;20.27;;
61096;SDS011;46977;50.936;6.908;2022-07-23T09:06:42;26.55;;;17.92;;
61096;SDS011;46977;50.936;6.908;2022-07-23T09:09:45;27.88;;;17.20;;
61096;SDS011;46977;50.936;6.908;2022-07-23T09:12:47;23.95;;;17.63;;
61096;SDS011;46977;50.936;6.908;2022-07-23T09:15:49;28.05;;;18.83;;
61096;SDS011;46977;50.936;6.908;2022-07-23T09:18:55;23.77;;;17.15;;
61096;SDS011;46977;50.936;6.908;2022-07-23T09:22:06;27.08;;;17.15;;
61096;SDS011;46977;50.936;6.908;2022-07-23T09:25:18;24.83;;;15.40;;
61096;SDS011;46977;50.936;6.908;2022-07-23T09:28:21;25.67;;;16.10;;
61096;SDS011;46977;50.936;6.908;2022-07-23T09:31:23;27.10;;;18.67;;
61096;SDS011;46977;50.936;6.908;2022-07-23T09:34:27;25.92;;;17.67;;
61096;SDS011;46977;50.936;6.908;2022-07-23T09:37:32;21.33;;;15.73;;
61096;SDS011;46977;50.936;6.908;2022-07-23T09:40:34;23.08;;;16.60;;
61096;SDS011;46977;50.936;6.908;2022-07-23T09:43:38;21.90;;;16.45;;
61096;SDS011;46977;50.936;6.908;2022-07-23T09:46:40;19.60;;;15.20;;
61096;SDS011;46977;50.936;6.908;2022-07-23T09:49:57;23.67;;;14.20;;
61096;SDS011;46977;50.936;6.908;2022-07-23T09:53:01;20.42;;;13.75;;
61096;SDS011;46977;50.936;6.908;2022-07-23T09:56:04;20.45;;;14.35;;
61096;SDS011;46977;50.936;6.908;2022-07-23T09:59:07;24.85;;;15.75;;
61096;SDS011;46977;50.936;6.908;2022-07-23T10:02:13;19.08;;;13.10;;
61096;SDS011;46977;50.936;6.908;2022-07-23T10:05:34;19.08;;;12.98;;
61096;SDS011;46977;50.936;6.908;2022-07-23T10:08:51;20.92;;;12.07;;
61096;SDS011;46977;50.936;6.908;2022-07-23T10:12:18;19.83;;;13.63;;
61096;SDS011;46977;50.936;6.908;2022-07-23T10:15:40;19.27;;;14.15;;
61096;SDS011;46977;50.936;6.908;2022-07-23T10:18:43;22.20;;;15.48;;
61096;SDS011;46977;50.936;6.908;2022-07-23T10:21:47;20.27;;;11.95;;
61096;SDS011;46977;50.936;6.908;2022-07-23T10:25:03;17.50;;;12.07;;
61096;SDS011;46977;50.936;6.908;2022-07-23T10:28:29;12.63;;;9.52;;
61096;SDS011;46977;50.936;6.908;2022-07-23T10:31:50;16.70;;;10.80;;
61096;SDS011;46977;50.936;6.908;2022-07-23T10:35:07;16.63;;;11.45;;
61096;SDS011;46977;50.936;6.908;2022-07-23T10:38:15;19.25;;;11.32;;
61096;SDS011;46977;50.936;6.908;2022-07-23T10:41:33;12.63;;;9.27;;
61096;SDS011;46977;50.936;6.908;2022-07-23T10:44:40;16.92;;;8.95;;
61096;SDS011;46977;50.936;6.908;2022-07-23T10:47:44;17.60;;;11.00;;
61096;SDS011;46977;50.936;6.908;2022-07-23T10:51:07;13.18;;;9.23;;
61096;SDS011;46977;50.936;6.908;2022-07-23T10:54:20;22.48;;;13.20;;
61096;SDS011;46977;50.936;6.908;2022-07-23T10:57:24;21.42;;;12.73;;
61096;SDS011;46977;50.936;6.908;2022-07-23T11:00:28;16.10;;;11.25;;
61096;SDS011;46977;50.936;6.908;2022-07-23T11:03:32;16.10;;;11.43;;
61096;SDS011;46977;50.936;6.908;2022-07-23T11:10:31;14.32;;;8.10;;
61096;SDS011;46977;50.936;6.908;2022-07-23T11:13:46;12.02;;;8.55;;
61096;SDS011;46977;50.936;6.908;2022-07-23T11:16:49;13.65;;;9.25;;
61096;SDS011;46977;50.936;6.908;2022-07-23T11:20:12;12.32;;;8.13;;
61096;SDS011;46977;50.936;6.908;2022-07-23T11:23:18;12.50;;;9.05;;
61096;SDS011;46977;50.936;6.908;2022-07-23T11:29:49;13.38;;;10.88;;
61096;SDS011;46977;50.936;6.908;2022-07-23T11:32:53;14.15;;;9.43;;
61096;SDS011;46977;50.936;6.908;2022-07-23T11:36:00;14.63;;;10.30;;
61096;SDS011;46977;50.936;6.908;2022-07-23T11:39:05;9.38;;;7.57;;
61096;SDS011;46977;50.936;6.908;2022-07-23T11:42:09;11.55;;;8.00;;
61096;SDS011;46977;50.936;6.908;2022-07-23T11:45:12;11.05;;;8.73;;
61096;SDS011;46977;50.936;6.908;2022-07-23T11:48:16;14.20;;;8.00;;
61096;SDS011;46977;50.936;6.908;2022-07-23T11:51:24;8.50;;;6.18;;
61096;SDS011;46977;50.936;6.908;2022-07-23T11:54:27;6.93;;;4.50;;
61096;SDS011;46977;50.936;6.908;2022-07-23T11:57:30;9.02;;;4.63;;
61096;SDS011;46977;50.936;6.908;2022-07-23T12:00:35;7.50;;;5.10;;
61096;SDS011;46977;50.936;6.908;2022-07-23T12:03:48;7.80;;;4.95;;
61096;SDS011;46977;50.936;6.908;2022-07-23T12:06:51;7.30;;;5.32;;
61096;SDS011;46977;50.936;6.908;2022-07-23T12:09:54;6.90;;;5.78;;
61096;SDS011;46977;50.936;6.908;2022-07-23T12:12:58;5.75;;;4.75;;
61096;SDS011;46977;50.936;6.908;2022-07-23T12:16:02;10.07;;;6.05;;
61096;SDS011;46977;50.936;6.908;2022-07-23T12:19:06;10.05;;;5.05;;
61096;SDS011;46977;50.936;6.908;2022-07-23T12:22:09;6.40;;;5.18;;
61096;SDS011;46977;50.936;6.908;2022-07-23T12:25:12;6.13;;;4.78;;
61096;SDS011;46977;50.936;6.908;2022-07-23T12:28:17;7.43;;;5.15;;
61096;SDS011;46977;50.936;6.908;2022-07-23T12:31:26;7.95;;;5.40;;
61096;SDS011;46977;50.936;6.908;2022-07-23T12:34:29;5.93;;;4.60;;
61096;SDS011;46977;50.936;6.908;2022-07-23T12:37:33;6.15;;;4.53;;
61096;SDS011;46977;50.936;6.908;2022-07-23T12:40:37;5.00;;;4.45;;
61096;SDS011;46977;50.936;6.908;2022-07-23T12:43:44;7.53;;;4.88;;
61096;SDS011;46977;50.936;6.908;2022-07-23T12:46:50;9.50;;;6.05;;
61096;SDS011;46977;50.936;6.908;2022-07-23T12:49:54;9.65;;;5.57;;
61096;SDS011;46977;50.936;6.908;2022-07-23T12:53:01;7.93;;;4.38;;
61096;SDS011;46977;50.936;6.908;2022-07-23T12:56:07;8.18;;;4.32;;
61096;SDS011;46977;50.936;6.908;2022-07-23T12:59:16;4.18;;;3.55;;
61096;SDS011;46977;50.936;6.908;2022-07-23T13:02:21;5.90;;;3.78;;
61096;SDS011;46977;50.936;6.908;2022-07-23T13:05:23;4.03;;;3.33;;
61096;SDS011;46977;50.936;6.908;2022-07-23T13:08:27;5.88;;;3.80;;
61096;SDS011;46977;50.936;6.908;2022-07-23T13:11:30;4.13;;;3.35;;
61096;SDS011;46977;50.936;6.908;2022-07-23T13:14:32;5.50;;;3.50;;
61096;SDS011;46977;50.936;6.908;2022-07-23T13:17:37;3.10;;;2.80;;
61096;SDS011;46977;50.936;6.908;2022-07-23T13:20:39;3.83;;;2.90;;
61096;SDS011;46977;50.936;6.908;2022-07-23T13:23:41;5.03;;;3.15;;
61096;SDS011;46977;50.936;6.908;2022-07-23T13:26:44;6.15;;;3.88;;
61096;SDS011;46977;50.936;6.908;2022-07-23T13:29:48;6.63;;;4.07;;
61096;SDS011;46977;50.936;6.908;2022-07-23T13:32:52;5.55;;;3.35;;
61096;SDS011;46977;50.936;6.908;2022-07-23T13:36:01;5.15;;;4.15;;
61096;SDS011;46977;50.936;6.908;2022-07-23T13:39:05;4.10;;;3.30;;
61096;SDS011;46977;50.936;6.908;2022-07-23T13:42:10;3.30;;;2.58;;
61096;SDS011;46977;50.936;6.908;2022-07-23T13:45:13;4.05;;;2.70;;
61096;SDS011;46977;50.936;6.908;2022-07-23T13:48:19;4.25;;;3.33;;
61096;SDS011;46977;50.936;6.908;2022-07-23T13:51:21;4.45;;;3.10;;
61096;SDS011;46977;50.936;6.908;2022-07-23T13:54:27;4.20;;;3.22;;
61096;SDS011;46977;50.936;6.908;2022-07-23T13:57:29;3.47;;;3.13;;
61096;SDS011;46977;50.936;6.908;2022-07-23T14:00:33;3.95;;;3.42;;
61096;SDS011;46977;50.936;6.908;2022-07-23T14:03:55;4.35;;;3.20;;
61096;SDS011;46977;50.936;6.908;2022-07-23T14:06:58;5.38;;;3.70;;
61096;SDS011;46977;50.936;6.908;2022-07-23T14:10:00;3.75;;;3.33;;
61096;SDS011;46977;50.936;6.908;2022-07-23T14:13:02;5.43;;;4.88;;
61096;SDS011;46977;50.936;6.908;2022-07-23T14:16:05;5.32;;;3.65;;
61096;SDS011;46977;50.936;6.908;2022-07-23T14:19:10;5.40;;;3.08;;
61096;SDS011;46977;50.936;6.908;2022-07-23T14:22:13;4.78;;;3.40;;
61096;SDS011;46977;50.936;6.908;2022-07-23T14:25:16;5.88;;;3.60;;
61096;SDS011;46977;50.936;6.908;2022-07-23T14:28:19;5.70;;;3.53;;
61096;SDS011;46977;50.936;6.908;2022-07-23T14:31:21;4.38;;;3.92;;
61096;SDS011;46977;50.936;6.908;2022-07-23T14:34:25;5.75;;;3.58;;
61096;SDS011;46977;50.936;6.908;2022-07-23T14:37:29;3.45;;;2.80;;
61096;SDS011;46977;50.936;6.908;2022-07-23T14:40:32;6.07;;;3.70;;
61096;SDS011;46977;50.936;6.908;2022-07-23T14:43:35;3.67;;;3.10;;
61096;SDS011;46977;50.936;6.908;2022-07-23T14:46:39;4.25;;;2.92;;
61096;SDS011;46977;50.936;6.908;2022-07-23T14:49:43;5.47;;;3.65;;
61096;SDS011;46977;50.936;6.908;2022-07-23T14:52:49;5.00;;;3.55;;
61096;SDS011;46977;50.936;6.908;2022-07-23T14:55:53;6.20;;;3.58;;
61096;SDS011;46977;50.936;6.908;2022-07-23T14:58:56;3.92;;;3.50;;
61096;SDS011;46977;50.936;6.908;2022-07-23T15:01:59;4.82;;;3.42;;
61096;SDS011;46977;50.936;6.908;2022-07-23T15:05:03;4.72;;;2.33;;
61096;SDS011;46977;50.936;6.908;2022-07-23T15:08:08;2.67;;;2.47;;
61096;SDS011;46977;50.936;6.908;2022-07-23T15:11:11;3.33;;;3.00;;
61096;SDS011;46977;50.936;6.908;2022-07-23T15:14:13;6.50;;;3.25;;
61096;SDS011;46977;50.936;6.908;2022-07-23T15:17:26;2.45;;;2.35;;
61096;SDS011;46977;50.936;6.908;2022-07-23T15:20:30;4.95;;;3.47;;
61096;SDS011;46977;50.936;6.908;2022-07-23T15:23:39;4.75;;;3.38;;
61096;SDS011;46977;50.936;6.908;2022-07-23T15:26:42;4.93;;;4.38;;
61096;SDS011;46977;50.936;6.908;2022-07-23T15:29:47;3.63;;;3.33;;
61096;SDS011;46977;50.936;6.908;2022-07-23T15:32:53;4.10;;;3.75;;
61096;SDS011;46977;50.936;6.908;2022-07-23T15:35:56;6.70;;;3.50;;
61096;SDS011;46977;50.936;6.908;2022-07-23T15:39:00;4.70;;;3.05;;
61096;SDS011;46977;50.936;6.908;2022-07-23T15:42:07;4.25;;;3.53;;
61096;SDS011;46977;50.936;6.908;2022-07-23T15:45:15;2.90;;;2.40;;
61096;SDS011;46977;50.936;6.908;2022-07-23T15:48:19;4.40;;;2.80;;
61096;SDS011;46977;50.936;6.908;2022-07-23T15:51:24;3.08;;;2.60;;
61096;SDS011;46977;50.936;6.908;2022-07-23T15:54:26;2.65;;;2.40;;
61096;SDS011;46977;50.936;6.908;2022-07-23T15:57:29;3.97;;;2.22;;
61096;SDS011;46977;50.936;6.908;2022-07-23T16:00:31;4.05;;;2.42;;
61096;SDS011;46977;50.936;6.908;2022-07-23T16:03:34;3.95;;;3.17;;
61096;SDS011;46977;50.936;6.908;2022-07-23T16:06:39;6.13;;;3.30;;
61096;SDS011;46977;50.936;6.908;2022-07-23T16:09:43;3.55;;;2.65;;
61096;SDS011;46977;50.936;6.908;2022-07-23T16:12:45;4.43;;;3.28;;
61096;SDS011;46977;50.936;6.908;2022-07-23T16:15:48;2.50;;;2.30;;
61096;SDS011;46977;50.936;6.908;2022-07-23T16:18:51;3.78;;;2.47;;
61096;SDS011;46977;50.936;6.908;2022-07-23T16:21:54;3.33;;;2.53;;
61096;SDS011;46977;50.936;6.908;2022-07-23T16:24:57;2.50;;;2.30;;
61096;SDS011;46977;50.936;6.908;2022-07-23T16:28:00;3.10;;;2.60;;
61096;SDS011;46977;50.936;6.908;2022-07-23T16:31:03;2.80;;;2.55;;
61096;SDS011;46977;50.936;6.908;2022-07-23T16:34:05;4.10;;;3.08;;
61096;SDS011;46977;50.936;6.908;2022-07-23T16:37:09;2.42;;;2.22;;
61096;SDS011;46977;50.936;6.908;2022-07-23T16:40:12;4.13;;;2.70;;
61096;SDS011;46977;50.936;6.908;2022-07-23T16:43:15;3.45;;;2.78;;
61096;SDS011;46977;50.936;6.908;2022-07-23T16:46:17;3.47;;;2.80;;
61096;SDS011;46977;50.936;6.908;2022-07-23T16:49:20;3.33;;;2.50;;
61096;SDS011;46977;50.936;6.908;2022-07-23T16:52:24;3.78;;;2.40;;
61096;SDS011;46977;50.936;6.908;2022-07-23T16:55:26;3.08;;;2.40;;
61096;SDS011;46977;50.936;6.908;2022-07-23T16:58:29;3.97;;;2.60;;
61096;SDS011;46977;50.936;6.908;2022-07-23T17:01:31;2.85;;;2.65;;
61096;SDS011;46977;50.936;6.908;2022-07-23T17:04:34;5.20;;;2.60;;
61096;SDS011;46977;50.936;6.908;2022-07-23T17:07:38;2.72;;;2.50;;
61096;SDS011;46977;50.936;6.908;2022-07-23T17:10:40;3.03;;;2.65;;
61096;SDS011;46977;50.936;6.908;2022-07-23T17:13:43;3.25;;;2.60;;
61096;SDS011;46977;50.936;6.908;2022-07-23T17:16:46;3.15;;;2.70;;
61096;SDS011;46977;50.936;6.908;2022-07-23T17:19:48;2.97;;;2.75;;
61096;SDS011;46977;50.936;6.908;2022-07-23T17:22:52;4.10;;;2.10;;
61096;SDS011;46977;50.936;6.908;2022-07-23T17:25:54;1.88;;;1.77;;
61096;SDS011;46977;50.936;6.908;2022-07-23T17:28:57;2.80;;;2.50;;
61096;SDS011;46977;50.936;6.908;2022-07-23T17:31:59;2.50;;;2.30;;
61096;SDS011;46977;50.936;6.908;2022-07-23T17:35:02;3.72;;;2.42;;
61096;SDS011;46977;50.936;6.908;2022-07-23T17:38:07;3.45;;;2.20;;
61096;SDS011;46977;50.936;6.908;2022-07-23T17:41:09;3.38;;;2.47;;
61096;SDS011;46977;50.936;6.908;2022-07-23T17:44:11;4.38;;;2.55;;
61096;SDS011;46977;50.936;6.908;2022-07-23T17:47:14;2.63;;;1.95;;
61096;SDS011;46977;50.936;6.908;2022-07-23T17:50:16;3.25;;;2.45;;
61096;SDS011;46977;50.936;6.908;2022-07-23T17:53:21;2.63;;;1.88;;
61096;SDS011;46977;50.936;6.908;2022-07-23T17:56:25;2.85;;;2.03;;
61096;SDS011;46977;50.936;6.908;2022-07-23T17:59:28;3.30;;;2.45;;
61096;SDS011;46977;50.936;6.908;2022-07-23T18:02:30;2.90;;;2.42;;
61096;SDS011;46977;50.936;6.908;2022-07-23T18:05:33;2.70;;;1.98;;
61096;SDS011;46977;50.936;6.908;2022-07-23T18:08:37;2.95;;;2.00;;
61096;SDS011;46977;50.936;6.908;2022-07-23T18:11:40;3.55;;;2.10;;
61096;SDS011;46977;50.936;6.908;2022-07-23T18:14:43;5.55;;;2.75;;
61096;SDS011;46977;50.936;6.908;2022-07-23T18:17:46;3.60;;;2.35;;
61096;SDS011;46977;50.936;6.908;2022-07-23T18:20:48;2.08;;;1.73;;